Time;durP1;ratioP1;P1;durP2;ratioP2;P2;SDS_P1;SDS_P2;PMS_P1;PMS_P2;Temp;Humidity;BMP_temperature;BMP_pressure;BME280_temperature;BME280_humidity;BME280_pressure;Samples;Min_cycle;Max_cycle;Signal;HPM_P1;HPM_P2
2021/01/05 00:00:00;;;;;;;3.20;2.63;;;0.90;99.90;;;;;;4963729;28;20181;-69
2021/01/05 00:02:27;;;;;;;2.95;2.50;;;1.00;99.90;;;;;;4962959;28;20046;-69
2021/01/05 00:04:53;;;;;;;2.78;2.05;;;1.00;99.90;;;;;;4960909;28;20109;-69
2021/01/05 00:07:20;;;;;;;2.90;2.42;;;1.00;99.90;;;;;;4961199;28;20062;-69
2021/01/05 00:09:46;;;;;;;2.47;2.28;;;1.00;99.90;;;;;;4951915;28;20658;-66
2021/01/05 00:12:15;;;;;;;2.25;2.00;;;1.00;99.90;;;;;;4964808;28;20046;-67
2021/01/05 00:14:46;;;;;;;2.85;2.13;;;1.00;99.90;;;;;;4967401;28;20148;-67
2021/01/05 00:17:16;;;;;;;4.22;2.97;;;1.00;99.90;;;;;;4965561;28;20491;-66
2021/01/05 00:19:43;;;;;;;3.45;1.75;;;1.00;99.90;;;;;;4967185;28;20162;-69
2021/01/05 00:22:10;;;;;;;4.40;2.17;;;1.00;99.90;;;;;;4966673;28;20145;-72
2021/01/05 00:24:36;;;;;;;2.72;2.30;;;1.00;99.90;;;;;;4967216;28;20395;-73
2021/01/05 00:27:04;;;;;;;2.40;2.00;;;1.00;99.90;;;;;;4966662;28;20542;-66
2021/01/05 00:29:31;;;;;;;4.30;2.33;;;1.00;99.90;;;;;;4965908;28;20089;-67
2021/01/05 00:32:12;;;;;;;2.75;2.40;;;1.00;99.90;;;;;;4966524;28;20474;-71
2021/01/05 00:34:40;;;;;;;4.32;2.15;;;1.00;99.90;;;;;;4967152;28;20043;-68
2021/01/05 00:37:06;;;;;;;3.10;2.42;;;1.00;99.90;;;;;;4964106;28;20606;-66
2021/01/05 00:39:33;;;;;;;3.13;2.80;;;1.10;99.90;;;;;;4967338;28;20158;-66
2021/01/05 00:41:59;;;;;;;3.13;2.47;;;1.10;99.90;;;;;;4966223;28;20050;-69
2021/01/05 00:44:26;;;;;;;4.13;2.15;;;1.10;99.90;;;;;;4966560;28;20458;-72
2021/01/05 00:46:54;;;;;;;2.63;2.30;;;1.10;99.90;;;;;;4964890;28;20070;-73
2021/01/05 00:49:21;;;;;;;2.70;2.28;;;1.10;99.90;;;;;;4963684;28;20039;-65
2021/01/05 00:51:47;;;;;;;3.42;2.63;;;1.10;99.90;;;;;;4966975;28;20129;-72
2021/01/05 00:54:15;;;;;;;4.30;2.72;;;1.10;99.90;;;;;;4964498;28;20050;-67
2021/01/05 00:56:41;;;;;;;5.70;2.70;;;1.10;99.90;;;;;;4965131;28;20047;-65
2021/01/05 00:59:08;;;;;;;2.38;1.83;;;1.10;99.90;;;;;;4963310;28;20157;-71
2021/01/05 01:01:35;;;;;;;2.80;2.05;;;1.10;99.90;;;;;;4964818;28;20050;-68
2021/01/05 01:04:01;;;;;;;2.97;2.00;;;1.10;99.90;;;;;;4965880;28;20047;-66
2021/01/05 01:06:28;;;;;;;2.30;1.95;;;1.10;99.90;;;;;;4965906;28;20082;-72
2021/01/05 01:08:55;;;;;;;3.75;2.55;;;1.10;99.90;;;;;;4960728;28;20062;-68
2021/01/05 01:11:22;;;;;;;2.40;1.88;;;1.10;99.90;;;;;;4964192;28;20494;-68
2021/01/05 01:13:49;;;;;;;3.38;2.13;;;1.10;99.90;;;;;;4958810;28;20122;-69
2021/01/05 01:16:16;;;;;;;2.40;2.20;;;1.10;99.90;;;;;;4964466;28;20471;-65
2021/01/05 01:18:43;;;;;;;2.45;1.98;;;1.10;99.90;;;;;;4964227;28;20518;-69
2021/01/05 01:21:10;;;;;;;1.40;1.30;;;1.10;99.90;;;;;;4963059;28;20058;-67
2021/01/05 01:23:36;;;;;;;2.10;1.75;;;1.10;99.90;;;;;;4962816;28;20150;-66
2021/01/05 01:26:05;;;;;;;2.45;1.90;;;1.10;99.90;;;;;;4964145;28;20521;-66
2021/01/05 01:28:32;;;;;;;2.63;2.35;;;1.10;99.90;;;;;;4965426;28;20074;-66
2021/01/05 01:30:58;;;;;;;3.35;2.35;;;1.10;99.90;;;;;;4965207;28;20054;-66
2021/01/05 01:33:33;;;;;;;3.47;2.90;;;1.10;99.90;;;;;;4964157;28;20760;-67
2021/01/05 01:36:04;;;;;;;2.22;2.03;;;1.10;99.90;;;;;;4964264;28;20506;-69
2021/01/05 01:38:31;;;;;;;2.60;2.25;;;1.10;99.90;;;;;;4963238;28;20506;-66
2021/01/05 01:41:00;;;;;;;3.83;2.47;;;1.10;99.90;;;;;;4965629;28;20101;-68
2021/01/05 01:43:37;;;;;;;2.50;2.10;;;1.10;99.90;;;;;;4961492;28;20077;-72
2021/01/05 01:46:13;;;;;;;2.50;1.83;;;1.10;99.90;;;;;;4965514;28;20050;-67
2021/01/05 01:48:43;;;;;;;5.10;2.60;;;1.00;99.90;;;;;;4965080;28;20046;-67
2021/01/05 01:51:11;;;;;;;4.00;2.70;;;1.10;99.90;;;;;;4975451;28;20543;-71
2021/01/05 01:53:56;;;;;;;3.55;2.60;;;1.10;99.90;;;;;;4962852;28;20078;-66
2021/01/05 01:57:10;;;;;;;2.67;2.10;;;1.10;99.90;;;;;;4969922;28;20043;-71
2021/01/05 02:00:09;;;;;;;2.38;2.03;;;1.10;99.90;;;;;;4958294;28;20499;-68
2021/01/05 02:03:08;;;;;;;2.15;1.40;;;1.00;99.90;;;;;;4958550;28;20054;-71
2021/01/05 02:06:03;;;;;;;1.70;1.55;;;1.00;99.90;;;;;;4960203;28;20074;-67
2021/01/05 02:08:41;;;;;;;1.45;1.35;;;1.00;99.90;;;;;;4974478;28;20157;-72
2021/01/05 02:11:25;;;;;;;1.73;1.60;;;1.00;99.90;;;;;;4975028;28;20046;-67
2021/01/05 02:14:20;;;;;;;2.95;1.50;;;0.90;99.90;;;;;;4961853;28;20043;-66
2021/01/05 02:17:00;;;;;;;1.52;1.40;;;0.90;99.90;;;;;;4963475;28;20129;-66
2021/01/05 02:19:32;;;;;;;;;;;0.90;99.90;;;;;;4958070;28;20055;-67
2021/01/05 02:22:14;;;;;;;3.70;1.77;;;0.90;99.90;;;;;;4975735;28;19934;-71
2021/01/05 02:25:05;;;;;;;2.50;1.73;;;0.90;99.90;;;;;;4961197;28;20050;-66
2021/01/05 02:27:40;;;;;;;2.10;1.33;;;0.90;99.90;;;;;;4959648;28;20039;-67
2021/01/05 02:30:09;;;;;;;4.53;3.53;;;0.80;99.90;;;;;;4963070;28;20050;-65
2021/01/05 02:33:00;;;;;;;2.80;2.42;;;0.80;99.90;;;;;;4975354;28;20101;-65
2021/01/05 02:35:46;;;;;;;1.70;1.60;;;0.80;99.90;;;;;;4956943;28;20051;-69
2021/01/05 02:38:59;;;;;;;2.10;1.33;;;0.70;99.90;;;;;;4964511;28;20049;-65
2021/01/05 02:42:23;;;;;;;3.35;1.17;;;0.80;99.90;;;;;;4970729;28;20042;-70
2021/01/05 02:45:17;;;;;;;3.28;1.83;;;0.70;99.90;;;;;;4960632;28;20050;-65
2021/01/05 02:48:05;;;;;;;2.03;1.65;;;0.70;99.90;;;;;;4964817;28;20076;-69
2021/01/05 02:50:53;;;;;;;3.03;1.52;;;0.70;99.90;;;;;;4963961;28;20065;-69
2021/01/05 02:53:58;;;;;;;1.88;1.60;;;0.70;99.90;;;;;;4961035;28;20486;-66
2021/01/05 02:57:21;;;;;;;2.30;1.55;;;0.60;99.90;;;;;;4965237;28;20145;-67
2021/01/05 03:00:47;;;;;;;3.47;1.58;;;0.50;99.90;;;;;;4962740;28;20050;-73
2021/01/05 03:03:45;;;;;;;2.00;1.60;;;0.50;99.90;;;;;;4954035;28;20050;-69
2021/01/05 03:06:34;;;;;;;3.78;1.80;;;0.40;99.90;;;;;;4964147;28;20069;-68
2021/01/05 03:09:32;;;;;;;1.98;1.77;;;0.30;99.90;;;;;;4961590;28;20058;-69
2021/01/05 03:12:42;;;;;;;2.90;2.10;;;0.30;99.90;;;;;;4964098;28;20101;-68
2021/01/05 03:15:56;;;;;;;3.47;2.27;;;0.30;99.90;;;;;;4964404;28;20072;-68
2021/01/05 03:19:05;;;;;;;2.67;2.30;;;0.20;99.90;;;;;;4960639;28;20109;-65
2021/01/05 03:21:56;;;;;;;2.75;2.38;;;0.10;99.90;;;;;;4963940;28;20054;-66
2021/01/05 03:24:42;;;;;;;3.75;2.00;;;0.00;99.90;;;;;;4962526;28;20057;-67
2021/01/05 03:27:28;;;;;;;2.65;2.20;;;0.00;99.90;;;;;;4960964;28;20086;-71
2021/01/05 03:30:22;;;;;;;3.78;2.28;;;0.00;99.90;;;;;;4962699;28;20050;-67
2021/01/05 03:33:08;;;;;;;1.83;1.73;;;-0.10;99.90;;;;;;4959698;28;20144;-67
2021/01/05 03:35:52;;;;;;;3.53;2.05;;;0.00;99.90;;;;;;4965119;28;20118;-66
2021/01/05 03:38:37;;;;;;;1.92;1.65;;;-0.10;99.90;;;;;;4964229;28;20132;-72
2021/01/05 03:41:22;;;;;;;4.22;2.10;;;-0.10;99.90;;;;;;4962979;28;20050;-70
2021/01/05 03:44:08;;;;;;;2.33;2.13;;;-0.10;99.90;;;;;;4965603;28;20065;-69
2021/01/05 03:46:53;;;;;;;2.75;2.00;;;-0.20;99.90;;;;;;4963022;28;20049;-66
2021/01/05 03:49:38;;;;;;;3.25;2.15;;;-0.20;99.90;;;;;;4966184;28;20058;-70
2021/01/05 03:52:24;;;;;;;4.78;2.03;;;-0.20;99.90;;;;;;4966580;28;20092;-66
2021/01/05 03:55:11;;;;;;;2.72;1.90;;;-0.20;99.90;;;;;;4966837;28;20113;-66
2021/01/05 03:57:56;;;;;;;2.95;1.80;;;-0.30;99.90;;;;;;4966330;28;20050;-67
2021/01/05 04:00:41;;;;;;;4.10;1.50;;;-0.20;99.90;;;;;;4968061;28;20206;-69
2021/01/05 04:03:08;;;;;;;2.83;2.05;;;-0.30;99.90;;;;;;4973039;28;20042;-65
2021/01/05 04:05:34;;;;;;;2.25;1.60;;;-0.30;99.90;;;;;;4968003;28;20322;-68
2021/01/05 04:08:01;;;;;;;2.65;1.70;;;-0.30;99.90;;;;;;4968539;28;20050;-69
2021/01/05 04:10:27;;;;;;;2.38;2.15;;;-0.30;99.90;;;;;;4966881;28;20149;-73
2021/01/05 04:12:54;;;;;;;3.42;1.90;;;-0.40;99.90;;;;;;4966723;28;20141;-67
2021/01/05 04:15:23;;;;;;;2.83;2.00;;;-0.40;99.90;;;;;;4965824;28;20372;-67
2021/01/05 04:17:51;;;;;;;3.42;2.05;;;-0.40;99.90;;;;;;4967407;28;20081;-72
2021/01/05 04:20:19;;;;;;;2.08;1.67;;;-0.40;99.90;;;;;;4967588;28;20419;-69
2021/01/05 04:22:45;;;;;;;4.47;2.15;;;-0.40;99.90;;;;;;4966442;28;20156;-66
2021/01/05 04:25:15;;;;;;;3.00;1.75;;;-0.50;99.90;;;;;;4966868;28;20062;-66
2021/01/05 04:27:42;;;;;;;3.13;1.95;;;-0.50;99.90;;;;;;4958941;28;20549;-67
2021/01/05 04:30:26;;;;;;;3.13;1.73;;;-0.50;99.90;;;;;;4967005;28;20039;-67
2021/01/05 04:32:55;;;;;;;1.40;1.20;;;-0.50;99.90;;;;;;4963767;28;20141;-67
2021/01/05 04:35:22;;;;;;;1.75;1.30;;;-0.50;99.90;;;;;;4968305;28;20039;-66
2021/01/05 04:37:50;;;;;;;2.67;1.60;;;-0.50;99.90;;;;;;4963715;28;20047;-75
2021/01/05 04:40:27;;;;;;;4.65;1.35;;;-0.50;99.90;;;;;;4966861;28;20097;-67
2021/01/05 04:43:16;;;;;;;3.63;1.50;;;-0.50;99.90;;;;;;4967261;28;20061;-67
2021/01/05 04:46:08;;;;;;;2.75;1.73;;;-0.50;99.90;;;;;;4965077;28;20046;-70
2021/01/05 04:48:59;;;;;;;2.53;1.60;;;-0.50;99.90;;;;;;4965962;28;20129;-67
2021/01/05 04:51:34;;;;;;;3.80;1.70;;;-0.60;99.90;;;;;;4964471;28;20039;-70
2021/01/05 04:54:16;;;;;;;2.97;1.73;;;-0.60;99.90;;;;;;4965876;28;20042;-68
2021/01/05 04:57:02;;;;;;;2.08;1.48;;;-0.50;99.90;;;;;;4966658;28;20108;-72
2021/01/05 04:59:37;;;;;;;2.28;1.58;;;-0.50;99.90;;;;;;4962444;28;20113;-66
2021/01/05 05:02:11;;;;;;;4.05;2.08;;;-0.50;99.90;;;;;;4964518;28;20045;-68
2021/01/05 05:04:46;;;;;;;4.38;2.30;;;-0.50;99.90;;;;;;4965311;28;20059;-69
2021/01/05 05:07:23;;;;;;;4.88;2.15;;;-0.50;99.90;;;;;;4960232;28;20054;-70
2021/01/05 05:10:13;;;;;;;2.42;1.67;;;-0.50;99.90;;;;;;4966522;28;20050;-70
2021/01/05 05:12:47;;;;;;;2.67;1.73;;;-0.50;99.90;;;;;;4966691;28;20043;-69
2021/01/05 05:15:42;;;;;;;2.85;2.03;;;-0.40;99.90;;;;;;4964825;28;20051;-68
2021/01/05 05:18:31;;;;;;;3.50;1.65;;;-0.40;99.90;;;;;;4966772;28;20244;-69
2021/01/05 05:21:06;;;;;;;3.42;1.48;;;-0.40;99.90;;;;;;4966939;28;20051;-67
2021/01/05 05:23:43;;;;;;;4.10;2.50;;;-0.30;99.90;;;;;;4964965;28;20400;-68
2021/01/05 05:26:25;;;;;;;2.55;1.73;;;-0.30;99.90;;;;;;4967069;28;20042;-75
2021/01/05 05:28:59;;;;;;;2.70;2.08;;;-0.30;99.90;;;;;;4966693;28;20050;-66
2021/01/05 05:31:29;;;;;;;3.67;2.05;;;-0.30;99.90;;;;;;4963306;28;20050;-65
2021/01/05 05:34:01;;;;;;;4.22;2.15;;;-0.20;99.90;;;;;;4966275;28;20063;-67
2021/01/05 05:37:19;;;;;;;3.58;1.80;;;-0.20;99.90;;;;;;4966007;28;20081;-69
2021/01/05 05:40:02;;;;;;;3.17;2.13;;;-0.20;99.90;;;;;;4980515;28;20066;-69
2021/01/05 05:43:06;;;;;;;2.90;2.13;;;-0.20;99.90;;;;;;4966650;28;20055;-68
2021/01/05 05:45:50;;;;;;;2.70;1.85;;;-0.10;99.90;;;;;;4964160;28;20058;-69
2021/01/05 05:48:40;;;;;;;4.25;1.98;;;-0.20;99.90;;;;;;4960555;28;20053;-73
2021/01/05 05:51:18;;;;;;;5.22;1.90;;;-0.10;99.90;;;;;;4964215;28;20046;-67
2021/01/05 05:53:53;;;;;;;3.25;1.95;;;-0.10;99.90;;;;;;4966580;28;20109;-70
2021/01/05 05:56:30;;;;;;;7.45;2.70;;;-0.10;99.90;;;;;;4966781;28;20042;-65
2021/01/05 05:58:58;;;;;;;3.05;2.45;;;-0.10;99.90;;;;;;4966243;28;20550;-69
2021/01/05 06:01:30;;;;;;;4.40;2.30;;;0.00;99.90;;;;;;4963194;28;20054;-67
2021/01/05 06:03:59;;;;;;;5.47;2.47;;;0.00;99.90;;;;;;4966303;28;20506;-66
2021/01/05 06:06:26;;;;;;;3.42;2.22;;;0.00;99.90;;;;;;4965691;28;20054;-65
2021/01/05 06:08:53;;;;;;;3.40;2.60;;;0.00;99.90;;;;;;4965274;28;20446;-69
2021/01/05 06:11:24;;;;;;;6.05;2.67;;;0.00;99.90;;;;;;4963215;28;20042;-67
2021/01/05 06:13:51;;;;;;;4.43;2.42;;;0.00;99.90;;;;;;4965466;28;20043;-65
2021/01/05 06:16:17;;;;;;;3.83;2.83;;;0.00;99.90;;;;;;4965038;28;20777;-69
2021/01/05 06:18:44;;;;;;;2.75;1.85;;;0.00;99.90;;;;;;4964672;28;20463;-72
2021/01/05 06:21:11;;;;;;;1.70;1.60;;;0.00;99.90;;;;;;4963986;28;20055;-66
2021/01/05 06:23:37;;;;;;;3.05;2.72;;;0.00;99.90;;;;;;4963103;28;20130;-65
2021/01/05 06:26:03;;;;;;;2.88;2.58;;;-0.10;99.90;;;;;;4965408;28;20093;-75
2021/01/05 06:28:30;;;;;;;2.72;2.20;;;-0.10;99.90;;;;;;4964512;28;20034;-69
2021/01/05 06:30:56;;;;;;;2.80;2.25;;;-0.10;99.90;;;;;;4965586;28;20530;-66
2021/01/05 06:33:23;;;;;;;3.10;2.67;;;-0.10;99.90;;;;;;4963444;28;20108;-71
2021/01/05 06:35:49;;;;;;;2.10;1.58;;;-0.10;99.90;;;;;;4964345;28;20245;-70
2021/01/05 06:38:16;;;;;;;3.28;2.15;;;-0.10;99.90;;;;;;4964565;28;20407;-69
2021/01/05 06:40:42;;;;;;;6.90;2.05;;;-0.10;99.90;;;;;;4964865;28;20054;-65
2021/01/05 06:43:08;;;;;;;2.30;2.10;;;0.00;99.90;;;;;;4963021;28;20059;-66
2021/01/05 06:45:35;;;;;;;3.45;2.67;;;0.00;99.90;;;;;;4964695;28;20782;-68
2021/01/05 06:48:01;;;;;;;2.83;2.28;;;0.00;99.90;;;;;;4964843;28;20051;-65
2021/01/05 06:50:29;;;;;;;3.70;3.35;;;0.00;99.90;;;;;;4964162;28;20042;-68
2021/01/05 06:52:56;;;;;;;2.05;1.85;;;0.00;99.90;;;;;;4953395;28;20623;-65
2021/01/05 06:55:24;;;;;;;4.10;3.13;;;0.00;99.90;;;;;;4962799;28;20043;-66
2021/01/05 06:57:51;;;;;;;11.43;2.80;;;0.00;99.90;;;;;;4962761;28;20055;-68
2021/01/05 07:00:26;;;;;;;4.10;2.17;;;0.00;99.90;;;;;;4964785;28;20141;-65
2021/01/05 07:02:53;;;;;;;3.65;2.70;;;0.00;99.90;;;;;;4963190;28;20051;-71
2021/01/05 07:05:20;;;;;;;2.95;2.58;;;0.00;99.90;;;;;;4964023;28;20047;-69
2021/01/05 07:07:47;;;;;;;3.35;2.72;;;0.00;99.90;;;;;;4962161;28;20055;-65
2021/01/05 07:10:16;;;;;;;3.90;2.30;;;0.00;99.90;;;;;;4963870;28;20689;-72
2021/01/05 07:12:43;;;;;;;3.85;3.00;;;0.00;99.90;;;;;;4964238;28;20111;-65
2021/01/05 07:15:11;;;;;;;4.25;3.00;;;0.00;99.90;;;;;;4962542;28;20887;-66
2021/01/05 07:17:37;;;;;;;3.35;2.53;;;0.00;99.90;;;;;;4963948;28;20695;-72
2021/01/05 07:20:05;;;;;;;3.33;2.92;;;0.00;99.90;;;;;;4964210;28;20548;-68
2021/01/05 07:22:32;;;;;;;4.55;2.63;;;0.00;99.90;;;;;;4961181;28;20093;-65
2021/01/05 07:24:59;;;;;;;3.95;2.50;;;0.10;99.90;;;;;;4963650;28;20114;-67
2021/01/05 07:27:26;;;;;;;5.07;2.78;;;0.10;99.90;;;;;;4962564;28;20058;-66
2021/01/05 07:29:53;;;;;;;4.78;4.28;;;0.10;99.90;;;;;;4964209;28;20097;-67
2021/01/05 07:32:20;;;;;;;2.97;2.30;;;0.10;99.90;;;;;;4963712;28;20167;-70
2021/01/05 07:34:47;;;;;;;4.85;2.47;;;0.10;99.90;;;;;;4958056;28;20521;-65
2021/01/05 07:37:17;;;;;;;3.63;2.53;;;0.10;99.90;;;;;;4962151;28;20129;-67
2021/01/05 07:39:43;;;;;;;4.60;3.15;;;0.10;99.90;;;;;;4964019;28;20055;-66
2021/01/05 07:42:13;;;;;;;3.10;2.80;;;0.10;99.90;;;;;;4963597;28;20047;-70
2021/01/05 07:44:40;;;;;;;3.88;2.50;;;0.10;99.90;;;;;;4961930;28;20126;-65
2021/01/05 07:47:07;;;;;;;5.07;3.75;;;0.10;99.90;;;;;;4962041;28;20097;-69
2021/01/05 07:49:34;;;;;;;3.72;2.72;;;0.20;99.90;;;;;;4962902;28;20496;-65
2021/01/05 07:52:00;;;;;;;3.38;1.77;;;0.20;99.90;;;;;;4963677;28;20051;-71
2021/01/05 07:54:29;;;;;;;3.38;2.22;;;0.20;99.90;;;;;;4963439;28;20089;-69
2021/01/05 07:56:56;;;;;;;2.58;2.20;;;0.20;99.90;;;;;;4963664;28;20094;-65
2021/01/05 07:59:23;;;;;;;3.55;1.63;;;0.20;99.90;;;;;;4961951;28;20058;-68
2021/01/05 08:01:49;;;;;;;2.42;2.10;;;0.20;99.90;;;;;;4964370;28;20110;-68
2021/01/05 08:04:15;;;;;;;2.20;2.00;;;0.20;99.90;;;;;;4964858;28;20723;-65
2021/01/05 08:06:42;;;;;;;3.55;3.17;;;0.20;99.90;;;;;;4964193;28;20047;-68
2021/01/05 08:09:09;;;;;;;3.55;3.13;;;0.20;99.90;;;;;;4961686;28;20051;-71
2021/01/05 08:11:39;;;;;;;2.67;2.38;;;0.20;99.90;;;;;;4963024;28;20043;-65
2021/01/05 08:14:06;;;;;;;2.47;2.03;;;0.20;99.90;;;;;;4964100;28;20054;-65
2021/01/05 08:16:32;;;;;;;3.75;2.13;;;0.20;99.90;;;;;;4963414;28;20102;-67
2021/01/05 08:18:59;;;;;;;2.83;2.63;;;0.20;99.90;;;;;;4963437;28;20154;-67
2021/01/05 08:21:26;;;;;;;3.10;2.45;;;0.20;99.90;;;;;;4961860;28;20058;-65
2021/01/05 08:23:53;;;;;;;2.65;1.85;;;0.20;99.90;;;;;;4962071;28;20055;-68
2021/01/05 08:26:20;;;;;;;3.25;2.15;;;0.20;99.90;;;;;;4963854;28;20109;-70
2021/01/05 08:28:47;;;;;;;2.35;2.15;;;0.20;99.90;;;;;;4962584;28;20494;-66
2021/01/05 08:31:15;;;;;;;2.47;2.08;;;0.30;99.90;;;;;;4961965;28;20050;-69
2021/01/05 08:33:41;;;;;;;2.63;2.10;;;0.30;99.90;;;;;;4964956;28;20082;-66
2021/01/05 08:36:10;;;;;;;2.40;2.20;;;0.30;99.90;;;;;;4964668;28;20046;-66
2021/01/05 08:38:36;;;;;;;3.85;3.55;;;0.30;99.90;;;;;;4966782;28;20046;-69
2021/01/05 08:41:03;;;;;;;2.75;2.53;;;0.30;99.90;;;;;;4960814;28;20051;-69
2021/01/05 08:43:29;;;;;;;4.35;2.38;;;0.30;99.90;;;;;;4965308;28;20095;-65
2021/01/05 08:45:56;;;;;;;5.43;3.53;;;0.30;99.90;;;;;;4964984;28;20054;-71
2021/01/05 08:48:23;;;;;;;5.70;5.10;;;0.30;99.90;;;;;;4967132;28;20051;-67
2021/01/05 08:50:51;;;;;;;4.75;3.65;;;0.30;99.90;;;;;;4966299;28;20070;-68
2021/01/05 08:53:17;;;;;;;3.03;2.15;;;0.30;99.90;;;;;;4964681;28;20761;-68
2021/01/05 08:55:44;;;;;;;4.68;3.20;;;0.40;99.90;;;;;;4963822;28;20359;-65
2021/01/05 08:58:10;;;;;;;3.50;2.95;;;0.40;99.90;;;;;;4966762;28;20109;-69
2021/01/05 09:00:37;;;;;;;3.28;2.97;;;0.40;99.90;;;;;;4966625;28;20046;-69
2021/01/05 09:03:04;;;;;;;4.90;3.00;;;0.40;99.90;;;;;;4968515;28;20133;-66
2021/01/05 09:05:43;;;;;;;3.93;2.53;;;0.40;99.90;;;;;;4966321;28;20047;-69
2021/01/05 09:08:09;;;;;;;3.78;3.42;;;0.40;99.90;;;;;;4967041;28;20363;-69
2021/01/05 09:10:36;;;;;;;3.25;2.92;;;0.40;99.90;;;;;;4966955;28;20050;-66
2021/01/05 09:13:02;;;;;;;8.30;3.83;;;0.40;99.90;;;;;;4966612;28;20509;-65
2021/01/05 09:15:29;;;;;;;6.13;3.28;;;0.40;99.90;;;;;;4964685;28;20383;-68
2021/01/05 09:17:55;;;;;;;3.33;2.47;;;0.40;99.90;;;;;;4965934;28;20050;-67
2021/01/05 09:20:24;;;;;;;3.97;2.60;;;0.40;99.90;;;;;;4966467;28;20042;-69
2021/01/05 09:22:53;;;;;;;2.97;2.67;;;0.40;99.90;;;;;;4965259;28;20051;-66
2021/01/05 09:25:21;;;;;;;2.97;2.35;;;0.40;99.90;;;;;;4964215;28;20102;-68
2021/01/05 09:27:50;;;;;;;5.22;3.38;;;0.40;99.90;;;;;;4966088;28;20059;-65
2021/01/05 09:30:18;;;;;;;3.70;2.60;;;0.50;99.90;;;;;;4965769;28;20480;-65
2021/01/05 09:32:45;;;;;;;2.75;2.47;;;0.40;99.90;;;;;;4965879;28;20869;-69
2021/01/05 09:35:12;;;;;;;6.13;2.25;;;0.40;99.90;;;;;;4964373;28;20046;-65
2021/01/05 09:37:44;;;;;;;3.03;2.72;;;0.50;99.90;;;;;;4965206;28;20047;-69
2021/01/05 09:40:13;;;;;;;3.83;2.97;;;0.50;99.90;;;;;;4965779;28;20687;-66
2021/01/05 09:42:40;;;;;;;2.95;2.65;;;0.50;99.90;;;;;;4966228;28;20736;-71
2021/01/05 09:45:07;;;;;;;4.28;2.75;;;0.50;99.90;;;;;;4963825;28;20287;-66
2021/01/05 09:47:34;;;;;;;2.90;2.67;;;0.50;99.90;;;;;;4965111;28;20090;-67
2021/01/05 09:50:00;;;;;;;2.72;2.53;;;0.50;99.90;;;;;;4966127;28;20074;-68
2021/01/05 09:52:27;;;;;;;3.35;2.65;;;0.50;99.90;;;;;;4964375;28;20054;-67
2021/01/05 09:54:53;;;;;;;2.78;2.55;;;0.50;99.90;;;;;;4966141;28;20081;-72
2021/01/05 09:57:20;;;;;;;3.50;2.75;;;0.50;99.90;;;;;;4961618;28;20035;-73
2021/01/05 09:59:46;;;;;;;5.85;2.90;;;0.50;99.90;;;;;;4965332;28;20070;-66
2021/01/05 10:02:13;;;;;;;2.90;2.60;;;0.50;99.90;;;;;;4966376;28;20419;-66
2021/01/05 10:04:40;;;;;;;2.38;2.17;;;0.50;99.90;;;;;;4967315;28;20073;-67
2021/01/05 10:07:08;;;;;;;3.70;2.60;;;0.50;99.90;;;;;;4965544;28;20548;-66
2021/01/05 10:09:36;;;;;;;2.85;2.13;;;0.50;99.90;;;;;;4965454;28;20452;-69
2021/01/05 10:12:03;;;;;;;2.42;2.22;;;0.50;99.90;;;;;;4964678;28;20070;-68
2021/01/05 10:14:30;;;;;;;2.95;2.30;;;0.60;99.90;;;;;;4965015;28;20798;-72
2021/01/05 10:16:57;;;;;;;2.38;2.05;;;0.50;99.90;;;;;;4965352;28;20075;-70
2021/01/05 10:19:25;;;;;;;2.58;2.38;;;0.50;99.90;;;;;;4963783;28;20464;-67
2021/01/05 10:21:52;;;;;;;2.40;2.20;;;0.60;99.90;;;;;;4964468;28;20065;-71
2021/01/05 10:24:19;;;;;;;2.90;2.58;;;0.60;99.90;;;;;;4964704;28;20073;-66
2021/01/05 10:26:54;;;;;;;4.40;2.53;;;0.60;99.90;;;;;;4964687;28;20134;-69
2021/01/05 10:29:21;;;;;;;2.65;2.42;;;0.60;99.90;;;;;;4958904;28;20209;-69
2021/01/05 10:31:48;;;;;;;4.47;3.65;;;0.60;99.90;;;;;;4962022;28;20063;-69
2021/01/05 10:34:21;;;;;;;5.25;3.08;;;0.60;99.90;;;;;;4964740;28;20109;-65
2021/01/05 10:36:56;;;;;;;3.05;2.63;;;0.60;99.90;;;;;;4964900;28;20647;-69
2021/01/05 10:39:23;;;;;;;3.05;2.75;;;0.70;99.90;;;;;;4962564;28;20134;-66
2021/01/05 10:41:50;;;;;;;4.28;2.60;;;0.70;99.90;;;;;;4964495;28;20058;-69
2021/01/05 10:44:19;;;;;;;3.28;2.55;;;0.70;99.90;;;;;;4964633;28;20089;-65
2021/01/05 10:46:46;;;;;;;5.25;2.38;;;0.70;99.90;;;;;;4964111;28;20450;-70
2021/01/05 10:49:14;;;;;;;3.78;2.88;;;0.70;99.90;;;;;;4962235;28;20042;-67
2021/01/05 10:52:01;;;;;;;3.20;2.88;;;0.80;99.90;;;;;;4964914;28;20055;-68
2021/01/05 10:54:29;;;;;;;4.70;2.90;;;0.80;99.90;;;;;;4970755;28;20054;-67
2021/01/05 10:57:03;;;;;;;4.47;3.33;;;0.80;99.90;;;;;;4964025;28;20090;-69
2021/01/05 10:59:31;;;;;;;4.22;2.67;;;0.80;99.90;;;;;;4960728;28;20058;-69
2021/01/05 11:02:02;;;;;;;3.45;2.67;;;0.80;99.90;;;;;;4965098;28;20043;-70
2021/01/05 11:04:30;;;;;;;5.18;3.83;;;0.80;99.90;;;;;;4965302;28;20054;-69
2021/01/05 11:06:58;;;;;;;4.40;3.15;;;0.80;99.90;;;;;;4963993;28;20109;-66
2021/01/05 11:09:27;;;;;;;6.05;3.92;;;0.80;99.90;;;;;;4963103;28;20117;-71
2021/01/05 11:11:59;;;;;;;4.15;3.70;;;0.80;99.90;;;;;;4963607;28;20078;-66
2021/01/05 11:14:26;;;;;;;5.43;3.10;;;0.80;99.90;;;;;;4964464;28;20101;-67
2021/01/05 11:16:54;;;;;;;4.28;3.47;;;0.80;99.90;;;;;;4963201;28;20066;-67
2021/01/05 11:19:22;;;;;;;3.42;2.72;;;0.80;99.90;;;;;;4963216;28;20463;-69
2021/01/05 11:21:57;;;;;;;2.67;2.45;;;0.90;99.90;;;;;;4964032;28;20062;-70
2021/01/05 11:24:26;;;;;;;3.05;2.65;;;0.90;99.90;;;;;;4956931;28;20050;-67
2021/01/05 11:26:53;;;;;;;3.08;2.75;;;0.90;99.90;;;;;;4963243;28;20039;-67
2021/01/05 11:29:21;;;;;;;3.72;2.63;;;0.90;99.90;;;;;;4963041;28;20054;-66
2021/01/05 11:32:02;;;;;;;4.03;3.10;;;0.90;99.90;;;;;;4961029;28;20391;-68
2021/01/05 11:34:29;;;;;;;3.97;2.63;;;0.90;99.90;;;;;;4961587;28;20101;-66
2021/01/05 11:37:20;;;;;;;3.65;3.20;;;0.90;99.90;;;;;;4963973;28;20043;-65
2021/01/05 11:39:49;;;;;;;5.35;2.75;;;0.90;99.90;;;;;;4960624;28;20065;-66
2021/01/05 11:42:18;;;;;;;3.25;2.60;;;0.90;99.90;;;;;;4962949;28;20117;-68
2021/01/05 11:44:46;;;;;;;4.50;3.47;;;0.90;99.90;;;;;;4962232;28;20082;-67
2021/01/05 11:47:14;;;;;;;3.90;2.58;;;0.90;99.90;;;;;;4962587;28;20280;-65
2021/01/05 11:49:41;;;;;;;6.50;3.15;;;0.80;99.90;;;;;;4964296;28;20102;-69
2021/01/05 11:52:07;;;;;;;3.13;2.55;;;0.80;99.90;;;;;;4962511;28;20119;-67
2021/01/05 11:54:34;;;;;;;2.30;2.10;;;0.80;99.90;;;;;;4963963;28;20050;-65
2021/01/05 11:57:01;;;;;;;3.00;2.22;;;0.80;99.90;;;;;;4963581;28;20116;-69
2021/01/05 11:59:31;;;;;;;3.50;2.85;;;0.80;99.90;;;;;;4962277;28;20101;-65
2021/01/05 12:02:00;;;;;;;4.22;2.70;;;0.70;99.90;;;;;;4956852;28;20059;-72
2021/01/05 12:04:27;;;;;;;3.28;2.67;;;0.70;99.90;;;;;;4962020;28;20054;-67
2021/01/05 12:06:55;;;;;;;6.70;3.83;;;0.70;99.90;;;;;;4963594;28;20086;-66
2021/01/05 12:09:24;;;;;;;4.32;3.15;;;0.70;99.90;;;;;;4964868;28;20109;-65
2021/01/05 12:11:58;;;;;;;4.47;3.83;;;0.70;99.90;;;;;;4967884;28;20137;-69
2021/01/05 12:14:25;;;;;;;5.68;3.97;;;0.70;99.90;;;;;;4967617;28;20054;-68
2021/01/05 12:16:52;;;;;;;3.97;3.08;;;0.70;99.90;;;;;;4967320;28;20051;-65
2021/01/05 12:19:22;;;;;;;3.20;2.72;;;0.80;99.90;;;;;;4965822;28;20125;-73
2021/01/05 12:21:50;;;;;;;;;;;0.80;99.90;;;;;;4967980;28;20069;-70
2021/01/05 12:24:20;;;;;;;3.13;2.53;;;0.80;99.90;;;;;;4958129;28;20426;-67
2021/01/05 12:26:47;;;;;;;4.18;3.35;;;0.90;99.90;;;;;;4966300;28;20467;-65
2021/01/05 12:29:17;;;;;;;4.25;3.25;;;0.90;99.90;;;;;;4965961;28;20047;-66
2021/01/05 12:31:47;;;;;;;4.53;2.78;;;0.90;99.90;;;;;;4966445;28;20057;-66
2021/01/05 12:34:16;;;;;;;3.97;3.20;;;0.90;99.90;;;;;;4963051;28;20054;-67
2021/01/05 12:36:43;;;;;;;4.53;2.90;;;0.90;99.90;;;;;;4966764;28;20130;-68
2021/01/05 12:39:21;;;;;;;4.50;3.13;;;0.90;99.90;;;;;;4965048;28;20046;-66
2021/01/05 12:41:48;;;;;;;3.17;2.70;;;1.00;99.90;;;;;;4963815;28;20509;-67
2021/01/05 12:44:18;;;;;;;4.63;3.30;;;1.00;99.90;;;;;;4966219;28;20057;-65
2021/01/05 12:46:45;;;;;;;2.97;2.45;;;1.00;99.90;;;;;;4966559;28;20145;-67
2021/01/05 12:49:14;;;;;;;3.40;2.90;;;1.00;99.90;;;;;;4963000;28;20518;-67
2021/01/05 12:51:43;;;;;;;3.80;3.22;;;1.00;99.90;;;;;;4960301;28;20067;-71
2021/01/05 12:54:15;;;;;;;3.65;3.22;;;1.00;99.90;;;;;;4964791;28;20134;-67
2021/01/05 12:56:59;;;;;;;5.88;3.47;;;1.00;99.90;;;;;;4962855;28;20658;-71
2021/01/05 12:59:26;;;;;;;5.55;3.92;;;1.00;99.90;;;;;;4966097;28;20116;-65
2021/01/05 13:02:04;;;;;;;4.50;3.92;;;1.00;99.90;;;;;;4960239;28;20051;-65
2021/01/05 13:04:30;;;;;;;4.28;3.78;;;1.00;99.90;;;;;;4966949;28;20051;-69
2021/01/05 13:06:57;;;;;;;5.90;4.82;;;1.00;99.90;;;;;;4966624;28;20066;-67
2021/01/05 13:09:24;;;;;;;5.85;4.68;;;1.00;99.90;;;;;;4964717;28;20368;-68
2021/01/05 13:11:51;;;;;;;4.60;4.07;;;1.00;99.90;;;;;;4964272;28;20050;-68
2021/01/05 13:14:19;;;;;;;4.63;3.85;;;1.00;99.90;;;;;;4966075;28;20046;-67
2021/01/05 13:16:49;;;;;;;5.82;4.22;;;0.90;99.90;;;;;;4965880;28;20117;-68
2021/01/05 13:19:21;;;;;;;5.28;3.80;;;1.00;99.90;;;;;;4963817;28;20056;-67
2021/01/05 13:21:50;;;;;;;6.50;4.28;;;1.00;99.90;;;;;;4965587;28;20058;-72
2021/01/05 13:24:29;;;;;;;9.20;4.43;;;1.00;99.90;;;;;;4957180;28;20043;-69